Etusivu
METAR-TAF:

METAR-TAF

Lentoasemat :

Kimble County Airport

Junction, Texas, Yhdysvallat

Leveyspiiri: 30-30-39N, Pituuspiiri: 099-45-59W, korkeus merenpinnasta: 527 m

Tämänhetkinen sää

Tämä raportti tehtiin 54 minuuttia sitten, kello 05.51 UTC
Tuuli 3 kn lännestä/luoteesta
Lämpötila 9°C
Kosteus 66%
Ilmanpaine 1022 hPa
Näkyvyys: 16.1 km
selkeää

METAR: KJCT 300551Z AUTO 29003KT 10SM CLR 09/03 A3017 RMK AO2 SLP192 T00890033 10256 20089 402780039 $

Aika: 01:45 (06:45 UTC)

Sääennuste

Tämä raportti tehtiin 1 tunti ja 25 minuuttia sitten, kello 05.20 UTC
Ennuste voimassa 30. päivästä klo 06 UTC - 01. päivään klo 06 UTC
Tuuli 2 kn eri suunnista
Näkyvyys: 10 km
selkeää
From 30. päivästä klo 1800 UTC
Tuuli 6 kn etelästä/lounaasta
Näkyvyys: 10 km
selkeää

TAF: KJCT 300520Z 3006/0106 VRB02KT P6SM SKC FM301800 21006KT P6SM SKC

Säähavainnot ja -ennusteet yli 4000 lentoasemalta (METAR- ja TAF-raportit).

Käytössä olevat sääasemat on merkitty karttaan keltaisilla ja punaisilla pisteillä.

Aseta hiiri pisteen päälle nähdäksesi sääaseman nimen.

Klikkaa sitten nähdäksesi säähavainnot ja -ennusteet.

Kartan vaihtaminen: klikkaa mustalla rastilla varustettuja vihreitä pisteitä, niin voit zoomata sisään; viivalla varustettua vihreää pistettä, niin voit zoomata ulos tai vihreitä nuolia, niin pääset viereisille kartoille.


METAR-TAF: